Time;durP1;ratioP1;P1;durP2;ratioP2;P2;SDS_P1;SDS_P2;PMS_P1;PMS_P2;Temp;Humidity;BMP_temperature;BMP_pressure;BME280_temperature;BME280_humidity;BME280_pressure;Samples;Min_cycle;Max_cycle;Signal;HPM_P1;HPM_P2
2023/03/23 00:01:53;;;;;;;;;;;;;;;5.99;66.67;101203.05;107530;1257;97966;-60
2023/03/23 00:04:38;;;;;;;;;;;;;;;5.97;66.56;101204.58;107655;1255;97829;-60
2023/03/23 00:07:05;;;;;;;;;;;;;;;5.92;66.57;101196.69;107537;1252;97921;-61
2023/03/23 00:09:53;;;;;;;;;;;;;;;5.89;66.84;101198.99;107626;1252;109466;-61
2023/03/23 00:12:41;;;;;;;;;;;;;;;5.88;66.86;101197.66;107606;1251;107448;-61
2023/03/23 00:15:33;;;;;;;;;;;;;;;5.89;66.92;101197.42;107667;1253;97896;-59
2023/03/23 00:18:22;;;;;;;;;;;;;;;5.86;66.94;101197.63;107673;1255;97809;-61
2023/03/23 00:21:08;;;;;;;;;;;;;;;5.81;67.18;101198.27;107602;1253;112372;-60
2023/03/23 00:23:35;;;;;;;;;;;;;;;5.80;67.36;101197.05;107648;1253;97920;-61
2023/03/23 00:26:21;;;;;;;;;;;;;;;5.79;67.25;101198.18;107644;1254;108822;-61
2023/03/23 00:29:13;;;;;;;;;;;;;;;5.77;67.21;101195.14;107661;1253;97828;-60
2023/03/23 00:31:59;;;;;;;;;;;;;;;5.71;67.29;101189.61;107680;1253;97701;-60
2023/03/23 00:34:45;;;;;;;;;;;;;;;5.68;67.52;101189.08;107524;1253;111475;-61
2023/03/23 00:37:32;;;;;;;;;;;;;;;5.67;67.36;101188.09;107660;1253;109804;-61
2023/03/23 00:40:00;;;;;;;;;;;;;;;5.68;67.44;101188.58;107634;1253;109090;-61
2023/03/23 00:42:45;;;;;;;;;;;;;;;5.70;67.24;101190.95;107638;1251;97848;-62
2023/03/23 00:45:34;;;;;;;;;;;;;;;5.71;67.62;101188.53;107537;1252;97906;-60
2023/03/23 00:48:20;;;;;;;;;;;;;;;5.72;67.48;101186.52;107670;1254;112165;-60
2023/03/23 00:51:12;;;;;;;;;;;;;;;5.68;67.20;101186.94;107655;1252;110225;-60
2023/03/23 00:53:57;;;;;;;;;;;;;;;5.63;67.19;101184.02;107638;1253;108488;-61
2023/03/23 00:56:26;;;;;;;;;;;;;;;5.60;67.32;101182.98;107637;1252;97941;-61
2023/03/23 00:59:11;;;;;;;;;;;;;;;5.56;67.43;101182.70;107542;1253;97877;-61
2023/03/23 01:01:57;;;;;;;;;;;;;;;5.54;67.50;101180.15;107609;1252;110927;-61
2023/03/23 01:04:46;;;;;;;;;;;;;;;5.52;67.77;101181.38;107527;1254;109594;-61
2023/03/23 01:07:32;;;;;;;;;;;;;;;5.50;67.75;101176.11;107604;1252;107637;-61
2023/03/23 01:10:18;;;;;;;;;;;;;;;5.49;67.87;101173.69;107632;1254;97937;-60
2023/03/23 01:12:45;;;;;;;;;;;;;;;5.48;67.77;101170.73;107594;1254;97822;-60
2023/03/23 01:15:31;;;;;;;;;;;;;;;5.47;68.01;101172.74;107637;1253;112214;-61
2023/03/23 01:18:16;;;;;;;;;;;;;;;5.45;67.95;101175.36;107643;1251;109404;-61
2023/03/23 01:21:10;;;;;;;;;;;;;;;5.42;67.91;101176.80;107441;1252;108691;-60
2023/03/23 01:23:56;;;;;;;;;;;;;;;5.39;68.06;101176.41;107591;1254;98001;-60
2023/03/23 01:26:42;;;;;;;;;;;;;;;5.37;68.00;101175.11;107534;1253;97709;-60
2023/03/23 01:29:09;;;;;;;;;;;;;;;5.33;67.99;101178.70;107539;1253;97867;-61
2023/03/23 01:31:55;;;;;;;;;;;;;;;5.32;67.79;101180.55;107641;1254;110090;-61
2023/03/23 01:34:41;;;;;;;;;;;;;;;5.31;67.85;101173.86;107638;1254;109692;-60
2023/03/23 01:37:27;;;;;;;;;;;;;;;5.32;68.12;101171.32;107640;1252;97813;-59
2023/03/23 01:40:14;;;;;;;;;;;;;;;5.33;68.15;101173.21;107683;1256;97814;-61
2023/03/23 01:43:00;;;;;;;;;;;;;;;5.33;68.07;101172.14;107530;1254;112174;-61
2023/03/23 01:45:29;;;;;;;;;;;;;;;5.31;68.43;101171.55;107539;1254;97803;-61
2023/03/23 01:48:21;;;;;;;;;;;;;;;5.29;68.23;101170.98;107625;1256;108530;-61
2023/03/23 01:51:09;;;;;;;;;;;;;;;5.27;68.22;101173.39;107659;1254;97860;-59
2023/03/23 01:53:56;;;;;;;;;;;;;;;5.21;67.91;101174.80;107707;1252;97906;-60
2023/03/23 01:56:46;;;;;;;;;;;;;;;5.16;67.68;101172.62;107678;1253;111924;-61
2023/03/23 01:59:33;;;;;;;;;;;;;;;5.12;67.74;101171.45;107677;1254;109384;-61
2023/03/23 02:02:20;;;;;;;;;;;;;;;5.08;67.78;101176.14;107634;1252;109465;-60
2023/03/23 02:05:10;;;;;;;;;;;;;;;5.03;67.87;101171.11;107599;1254;97819;-59
2023/03/23 02:07:59;;;;;;;;;;;;;;;4.98;68.07;101175.45;107650;1253;97828;-60
2023/03/23 02:10:46;;;;;;;;;;;;;;;4.95;67.77;101175.65;107603;1253;111857;-61
2023/03/23 02:13:32;;;;;;;;;;;;;;;4.91;67.73;101175.31;107626;1254;109928;-61
2023/03/23 02:16:28;;;;;;;;;;;;;;;4.89;67.95;101175.63;107706;1255;108766;-60
2023/03/23 02:19:14;;;;;;;;;;;;;;;4.87;67.64;101172.39;107635;1254;97831;-61
2023/03/23 02:21:59;;;;;;;;;;;;;;;4.81;67.75;101168.41;107655;1254;97830;-62
2023/03/23 02:24:51;;;;;;;;;;;;;;;4.78;67.64;101169.33;107690;1253;113807;-60
2023/03/23 02:27:41;;;;;;;;;;;;;;;4.75;67.94;101173.76;107680;1253;111056;-60
2023/03/23 02:30:36;;;;;;;;;;;;;;;4.73;68.17;101170.88;107638;1253;108234;-60
2023/03/23 02:33:21;;;;;;;;;;;;;;;4.73;68.14;101168.89;107610;1254;97813;-61
2023/03/23 02:36:08;;;;;;;;;;;;;;;4.74;68.27;101169.20;107636;1254;97828;-61
2023/03/23 02:39:12;;;;;;;;;;;;;;;4.74;68.45;101168.84;107648;1254;112076;-60
2023/03/23 02:42:02;;;;;;;;;;;;;;;4.73;68.37;101166.44;107623;1254;110184;-61
2023/03/23 02:44:50;;;;;;;;;;;;;;;4.72;68.66;101164.55;107640;1254;107526;-60
2023/03/23 02:47:38;;;;;;;;;;;;;;;4.70;68.55;101168.90;107649;1254;97838;-60
2023/03/23 02:50:25;;;;;;;;;;;;;;;4.71;69.15;101170.10;107633;1256;97822;-61
2023/03/23 02:52:53;;;;;;;;;;;;;;;4.70;69.31;101169.94;107615;1252;110653;-61
2023/03/23 02:55:41;;;;;;;;;;;;;;;4.70;69.18;101172.28;107640;1254;109365;-61
2023/03/23 02:58:28;;;;;;;;;;;;;;;4.69;69.25;101169.67;107650;1254;108542;-60
2023/03/23 03:01:17;;;;;;;;;;;;;;;4.65;68.84;101171.30;107673;1252;97714;-61
2023/03/23 03:04:14;;;;;;;;;;;;;;;4.58;68.79;101172.61;107669;1254;97739;-61
2023/03/23 03:07:08;;;;;;;;;;;;;;;4.51;68.72;101173.53;107666;1254;111492;-63
2023/03/23 03:09:47;;;;;;;;;;;;;;;4.47;68.75;101176.58;107661;1253;108822;-60
2023/03/23 03:12:51;;;;;;;;;;;;;;;4.43;68.58;101173.99;107640;1252;108370;-60
2023/03/23 03:15:43;;;;;;;;;;;;;;;4.36;68.56;101174.71;107634;1254;97787;-60
2023/03/23 03:18:39;;;;;;;;;;;;;;;4.28;68.69;101176.75;107648;1253;97808;-61
2023/03/23 03:21:27;;;;;;;;;;;;;;;4.20;68.41;101176.81;107634;1252;111975;-61
2023/03/23 03:24:15;;;;;;;;;;;;;;;4.14;68.60;101179.64;107601;1253;110493;-60
2023/03/23 03:26:47;;;;;;;;;;;;;;;4.07;68.75;101179.48;107601;1254;108109;-61
2023/03/23 03:29:45;;;;;;;;;;;;;;;4.02;68.39;101181.56;107606;1253;97818;-60
2023/03/23 03:32:34;;;;;;;;;;;;;;;3.99;68.55;101182.39;107633;1252;97810;-61
2023/03/23 03:35:23;;;;;;;;;;;;;;;3.95;68.58;101184.74;107618;1254;113139;-61
2023/03/23 03:38:10;;;;;;;;;;;;;;;3.87;68.79;101185.93;107603;1254;110261;-61
2023/03/23 03:40:56;;;;;;;;;;;;;;;3.80;68.53;101188.92;107653;1254;107680;-61
2023/03/23 03:43:24;;;;;;;;;;;;;;;3.75;68.90;101189.16;107634;1252;97818;-60
2023/03/23 03:46:11;;;;;;;;;;;;;;;3.71;68.55;101190.64;107627;1253;97825;-61
2023/03/23 03:48:58;;;;;;;;;;;;;;;3.67;68.73;101189.09;107631;1253;112148;-61
2023/03/23 03:51:45;;;;;;;;;;;;;;;3.64;68.68;101193.89;107640;1254;109305;-61
2023/03/23 03:54:37;;;;;;;;;;;;;;;3.57;68.82;101198.46;107658;1254;109231;-60
2023/03/23 03:57:23;;;;;;;;;;;;;;;3.51;68.77;101199.52;107659;1255;97829;-61
2023/03/23 04:00:25;;;;;;;;;;;;;;;3.44;68.95;101208.00;107438;1253;97800;-61
2023/03/23 04:03:10;;;;;;;;;;;;;;;3.40;68.88;101208.02;107678;1256;112266;-60
2023/03/23 04:06:05;;;;;;;;;;;;;;;3.38;69.08;101212.38;107625;1254;109862;-61
2023/03/23 04:08:52;;;;;;;;;;;;;;;3.36;69.26;101207.71;107612;1254;108303;-60
2023/03/23 04:11:38;;;;;;;;;;;;;;;3.33;69.27;101209.27;107658;1254;97850;-60
2023/03/23 04:14:50;;;;;;;;;;;;;;;3.31;68.99;101213.46;107450;1253;98015;-59
2023/03/23 04:17:17;;;;;;;;;;;;;;;3.30;69.39;101217.05;107607;1258;97851;-61
2023/03/23 04:20:20;;;;;;;;;;;;;;;3.31;69.41;101216.30;107670;1254;109817;-60
2023/03/23 04:23:06;;;;;;;;;;;;;;;3.33;69.31;101218.52;107647;1255;108248;-61
2023/03/23 04:25:56;;;;;;;;;;;;;;;3.32;69.42;101219.66;107639;1254;97815;-61
2023/03/23 04:28:44;;;;;;;;;;;;;;;3.29;69.49;101214.61;107679;1254;97797;-60
2023/03/23 04:31:29;;;;;;;;;;;;;;;3.28;69.63;101215.94;107674;1253;111246;-62
2023/03/23 04:34:06;;;;;;;;;;;;;;;3.26;69.76;101217.59;107735;1253;110782;-61
2023/03/23 04:36:52;;;;;;;;;;;;;;;3.24;69.78;101215.77;107660;1253;108604;-60
2023/03/23 04:39:39;;;;;;;;;;;;;;;3.23;70.02;101215.98;107738;1252;97806;-61
2023/03/23 04:42:29;;;;;;;;;;;;;;;3.23;70.27;101219.16;107663;1255;97703;-60
2023/03/23 04:45:45;;;;;;;;;;;;;;;3.25;70.36;101219.06;107706;1255;109876;-60
2023/03/23 04:48:33;;;;;;;;;;;;;;;3.27;70.41;101222.16;107693;1253;110047;-60
2023/03/23 04:51:22;;;;;;;;;;;;;;;3.29;70.48;101226.33;107531;1254;107202;-61
2023/03/23 04:54:17;;;;;;;;;;;;;;;3.30;70.66;101228.21;107653;1254;97915;-60
2023/03/23 04:57:03;;;;;;;;;;;;;;;3.34;70.40;101225.16;107649;1252;97975;-63
2023/03/23 05:00:14;;;;;;;;;;;;;;;3.39;70.65;101227.25;107635;1254;112436;-60
2023/03/23 05:03:02;;;;;;;;;;;;;;;3.42;70.59;101223.70;107722;1254;109114;-61
2023/03/23 05:05:51;;;;;;;;;;;;;;;3.44;70.57;101226.80;107680;1254;108019;-61
2023/03/23 05:08:20;;;;;;;;;;;;;;;3.45;70.54;101230.27;107703;1254;97813;-60
2023/03/23 05:11:06;;;;;;;;;;;;;;;3.49;70.82;101231.35;107647;1254;97691;-61
2023/03/23 05:13:52;;;;;;;;;;;;;;;3.53;70.77;101231.34;107643;1254;112000;-62
2023/03/23 05:16:39;;;;;;;;;;;;;;;3.56;70.83;101232.73;107737;1254;110752;-61
2023/03/23 05:19:26;;;;;;;;;;;;;;;3.62;70.84;101237.09;107663;1255;108073;-60
2023/03/23 05:22:28;;;;;;;;;;;;;;;3.67;70.73;101235.56;107648;1253;97806;-61
2023/03/23 05:24:55;;;;;;;;;;;;;;;3.69;71.05;101236.87;107663;1253;97785;-61
2023/03/23 05:27:48;;;;;;;;;;;;;;;3.73;70.93;101233.28;107658;1252;111108;-61
2023/03/23 05:30:57;;;;;;;;;;;;;;;3.81;71.03;101237.49;107661;1253;111147;-60
2023/03/23 05:33:42;;;;;;;;;;;;;;;3.89;71.26;101238.12;107520;1254;107788;-61
2023/03/23 05:36:37;;;;;;;;;;;;;;;3.97;71.33;101235.05;107686;1254;97803;-60
2023/03/23 05:39:45;;;;;;;;;;;;;;;4.06;71.49;101234.23;107692;1254;97693;-60
2023/03/23 05:42:35;;;;;;;;;;;;;;;4.14;71.42;101234.70;107488;1254;110711;-60
2023/03/23 05:45:27;;;;;;;;;;;;;;;4.23;71.33;101236.33;107699;1254;108852;-61
2023/03/23 05:48:13;;;;;;;;;;;;;;;4.33;71.58;101232.78;107712;1253;106668;-61
2023/03/23 05:50:59;;;;;;;;;;;;;;;4.42;71.88;101232.30;107664;1255;97937;-61
2023/03/23 05:53:47;;;;;;;;;;;;;;;4.51;71.77;101234.23;107665;1254;97829;-61
2023/03/23 05:56:34;;;;;;;;;;;;;;;4.61;71.79;101237.96;107667;1252;111260;-61
2023/03/23 05:59:33;;;;;;;;;;;;;;;4.73;71.78;101246.05;107608;1254;110107;-61
2023/03/23 06:02:24;;;;;;;;;;;;;;;4.84;71.91;101246.44;107686;1253;108095;-60
2023/03/23 06:05:11;;;;;;;;;;;;;;;4.95;72.06;101241.92;107660;1254;97902;-60
2023/03/23 06:07:58;;;;;;;;;;;;;;;5.08;72.09;101244.21;107679;1254;97807;-61
2023/03/23 06:10:45;;;;;;;;;;;;;;;5.20;71.71;101247.98;107636;1253;111854;-60
2023/03/23 06:13:33;;;;;;;;;;;;;;;5.31;72.23;101249.48;107627;1254;110596;-61
2023/03/23 06:16:08;;;;;;;;;;;;;;;5.41;71.94;101246.89;107594;1252;107476;-62
2023/03/23 06:19:00;;;;;;;;;;;;;;;5.52;72.10;101250.51;107637;1253;97773;-62
2023/03/23 06:21:55;;;;;;;;;;;;;;;5.64;72.16;101244.30;107679;1254;97818;-61
2023/03/23 06:24:44;;;;;;;;;;;;;;;5.76;72.18;101244.31;107623;1254;111425;-61
2023/03/23 06:27:35;;;;;;;;;;;;;;;5.88;72.29;101248.71;107630;1254;108917;-61
2023/03/23 06:30:21;;;;;;;;;;;;;;;6.01;72.33;101251.19;107608;1254;109378;-61
2023/03/23 06:32:51;;;;;;;;;;;;;;;6.14;72.29;101256.27;107648;1254;97909;-63
2023/03/23 06:36:01;;;;;;;;;;;;;;;6.28;72.52;101252.73;107470;1254;97941;-62
2023/03/23 06:39:07;;;;;;;;;;;;;;;6.41;72.31;101255.28;107538;1256;111696;-62
2023/03/23 06:42:08;;;;;;;;;;;;;;;6.54;72.08;101256.41;107586;1254;109714;-62
2023/03/23 06:45:11;;;;;;;;;;;;;;;6.69;71.94;101259.19;107579;1253;107449;-63
2023/03/23 06:48:13;;;;;;;;;;;;;;;6.87;72.10;101255.55;107540;1254;97925;-62
2023/03/23 06:50:45;;;;;;;;;;;;;;;7.04;72.40;101252.66;107604;1254;97688;-61
2023/03/23 06:53:30;;;;;;;;;;;;;;;7.23;72.34;101250.18;107636;1254;112142;-61
2023/03/23 06:56:16;;;;;;;;;;;;;;;7.40;72.15;101253.14;107607;1254;109591;-62
2023/03/23 06:59:03;;;;;;;;;;;;;;;7.60;72.03;101251.10;107590;1253;107917;-62
2023/03/23 07:01:49;;;;;;;;;;;;;;;7.77;71.90;101249.02;107564;1254;97805;-61
2023/03/23 07:04:35;;;;;;;;;;;;;;;7.96;71.77;101252.23;107668;1254;97679;-62
2023/03/23 07:07:18;;;;;;;;;;;;;;;8.13;71.82;101251.39;107670;1253;111373;-61
2023/03/23 07:10:20;;;;;;;;;;;;;;;8.32;71.59;101245.39;107654;1254;108795;-62
2023/03/23 07:13:07;;;;;;;;;;;;;;;8.51;71.23;101247.64;107585;1254;107489;-62
2023/03/23 07:15:57;;;;;;;;;;;;;;;8.68;71.06;101249.27;107607;1254;97848;-62
2023/03/23 07:18:43;;;;;;;;;;;;;;;8.86;70.92;101246.91;107592;1254;97916;-62
2023/03/23 07:21:30;;;;;;;;;;;;;;;9.02;70.37;101247.48;107652;1253;111858;-61
2023/03/23 07:23:57;;;;;;;;;;;;;;;9.16;70.11;101250.38;107509;1254;110378;-61
2023/03/23 07:27:03;;;;;;;;;;;;;;;9.38;70.01;101250.18;107539;1254;108242;-63
2023/03/23 07:29:52;;;;;;;;;;;;;;;9.60;69.90;101245.50;107535;1256;97819;-63
2023/03/23 07:32:38;;;;;;;;;;;;;;;9.81;69.57;101246.06;107567;1254;97721;-62
2023/03/23 07:35:25;;;;;;;;;;;;;;;9.99;69.19;101246.98;107650;1254;111893;-63
2023/03/23 07:38:14;;;;;;;;;;;;;;;10.16;68.74;101247.23;107660;1254;110769;-62
2023/03/23 07:40:45;;;;;;;;;;;;;;;10.32;68.56;101245.77;107601;1254;108560;-62
2023/03/23 07:43:32;;;;;;;;;;;;;;;10.51;67.57;101244.16;107598;1254;97890;-64
2023/03/23 07:46:28;;;;;;;;;;;;;;;10.73;67.24;101246.30;107600;1254;97856;-63
2023/03/23 07:49:17;;;;;;;;;;;;;;;10.93;66.93;101241.64;107633;1254;110998;-62
2023/03/23 07:52:30;;;;;;;;;;;;;;;11.14;66.68;101236.65;107580;1254;111028;-62
2023/03/23 07:55:18;;;;;;;;;;;;;;;11.35;66.10;101235.27;107576;1256;108407;-62
2023/03/23 07:58:08;;;;;;;;;;;;;;;11.56;65.36;101237.45;107465;1254;97935;-61
2023/03/23 08:00:57;;;;;;;;;;;;;;;11.74;64.74;101233.92;107719;1254;97886;-62
2023/03/23 08:03:57;;;;;;;;;;;;;;;11.95;64.43;101232.14;107579;1254;111525;-62
2023/03/23 08:07:06;;;;;;;;;;;;;;;12.17;63.07;101228.42;107307;1254;109028;-62
2023/03/23 08:09:52;;;;;;;;;;;;;;;12.38;62.27;101230.55;107614;1254;108590;-61
2023/03/23 08:12:59;;;;;;;;;;;;;;;12.64;61.20;101229.39;107569;1255;97901;-63
2023/03/23 08:15:45;;;;;;;;;;;;;;;12.87;59.42;101230.87;107633;1254;97730;-62
2023/03/23 08:18:54;;;;;;;;;;;;;;;13.12;59.38;101223.92;107632;1254;111242;-61
2023/03/23 08:22:19;;;;;;;;;;;;;;;13.41;58.72;101221.22;107064;1262;109070;-63
2023/03/23 08:25:26;;;;;;;;;;;;;;;13.69;57.75;101218.27;106883;1260;109414;-63
2023/03/23 08:28:32;;;;;;;;;;;;;;;13.93;57.16;101222.39;107433;1254;97725;-62
2023/03/23 08:31:21;;;;;;;;;;;;;;;14.11;56.77;101222.27;107562;1254;97720;-62
2023/03/23 08:33:58;;;;;;;;;;;;;;;14.28;56.53;101223.64;107585;1254;111259;-63
2023/03/23 08:37:04;;;;;;;;;;;;;;;14.51;56.37;101222.92;107570;1254;108728;-62
2023/03/23 08:40:09;;;;;;;;;;;;;;;14.67;55.37;101225.48;107456;1256;108332;-63
2023/03/23 08:43:15;;;;;;;;;;;;;;;14.83;54.55;101227.15;107621;1254;97717;-62
2023/03/23 08:46:08;;;;;;;;;;;;;;;14.97;54.75;101225.06;107697;1254;97851;-63
2023/03/23 08:49:15;;;;;;;;;;;;;;;15.18;53.42;101219.94;107536;1255;112341;-63
2023/03/23 08:52:09;;;;;;;;;;;;;;;15.45;53.75;101215.73;107357;1254;109642;-62
2023/03/23 08:55:20;;;;;;;;;;;;;;;15.77;50.83;101208.67;107577;1254;107885;-63
2023/03/23 08:58:15;;;;;;;;;;;;;;;16.01;48.26;101210.16;107614;1254;97807;-64
2023/03/23 09:01:10;;;;;;;;;;;;;;;16.29;47.84;101202.41;107633;1256;97960;-64
2023/03/23 09:04:05;;;;;;;;;;;;;;;16.55;46.34;101203.19;107587;1254;111410;-63
2023/03/23 09:07:17;;;;;;;;;;;;;;;16.90;45.26;101200.08;107358;1256;109913;-62
2023/03/23 09:09:48;;;;;;;;;;;;;;;17.16;45.78;101196.87;107613;1254;97922;-63
2023/03/23 09:12:34;;;;;;;;;;;;;;;17.52;45.27;101198.73;107545;1255;97836;-63
2023/03/23 09:15:21;;;;;;;;;;;;;;;17.85;43.79;101195.73;107566;1257;97844;-65
2023/03/23 09:18:07;;;;;;;;;;;;;;;18.15;42.33;101185.10;107641;1254;111735;-63
2023/03/23 09:20:53;;;;;;;;;;;;;;;18.51;42.19;101181.59;107606;1254;109617;-63
2023/03/23 09:23:43;;;;;;;;;;;;;;;18.81;40.25;101181.35;107645;1256;108833;-61
2023/03/23 09:26:10;;;;;;;;;;;;;;;19.19;40.72;101179.45;107389;1260;98071;-64
2023/03/23 09:28:56;;;;;;;;;;;;;;;19.67;39.94;101171.70;107674;1254;97726;-61
2023/03/23 09:31:42;;;;;;;;;;;;;;;20.36;40.04;101170.65;107642;1256;109732;-63
2023/03/23 09:34:29;;;;;;;;;;;;;;;21.22;38.47;101159.70;107622;1254;109645;-63
2023/03/23 09:37:15;;;;;;;;;;;;;;;22.09;34.73;101159.80;107550;1254;108266;-64
2023/03/23 09:40:05;;;;;;;;;;;;;;;22.69;34.00;101160.38;107612;1254;97810;-63
2023/03/23 09:42:45;;;;;;;;;;;;;;;23.02;30.96;101156.94;107548;1256;97896;-64
2023/03/23 09:45:41;;;;;;;;;;;;;;;23.68;31.23;101150.80;107608;1253;111763;-63
2023/03/23 09:48:38;;;;;;;;;;;;;;;24.21;31.10;101140.73;107600;1256;109296;-66
2023/03/23 09:51:45;;;;;;;;;;;;;;;24.61;29.48;101137.11;107597;1254;108224;-63
2023/03/23 09:54:36;;;;;;;;;;;;;;;25.12;28.57;101132.14;107680;1255;97809;-64
2023/03/23 09:57:27;;;;;;;;;;;;;;;25.52;28.32;101127.98;107644;1252;97713;-65
2023/03/23 09:59:58;;;;;;;;;;;;;;;25.93;27.75;101124.11;107694;1253;112367;-65
2023/03/23 10:02:45;;;;;;;;;;;;;;;26.43;26.02;101121.72;107706;1254;109891;-63
2023/03/23 10:05:35;;;;;;;;;;;;;;;26.83;24.93;101121.43;107522;1257;218619;-64
2023/03/23 10:08:32;;;;;;;;;;;;;;;27.15;24.43;101121.35;107690;1254;97980;-63
2023/03/23 10:11:27;;;;;;;;;;;;;;;27.45;25.56;101112.89;107587;1257;97710;-63
2023/03/23 10:14:14;;;;;;;;;;;;;;;27.98;24.04;101118.38;107648;1254;111925;-63
2023/03/23 10:16:55;;;;;;;;;;;;;;;28.07;22.65;101119.35;107705;1255;97905;-61
2023/03/23 10:20:00;;;;;;;;;;;;;;;28.40;23.71;101114.14;107620;1255;107628;-64
2023/03/23 10:23:06;;;;;;;;;;;;;;;28.87;23.97;101102.42;107694;1254;97854;-63
2023/03/23 10:25:55;;;;;;;;;;;;;;;29.40;20.49;101111.47;107353;1252;97718;-63
2023/03/23 10:28:43;;;;;;;;;;;;;;;29.33;20.15;101114.39;107684;1255;113084;-63
2023/03/23 10:31:35;;;;;;;;;;;;;;;29.19;21.35;101099.10;107688;1256;109176;-62
2023/03/23 10:34:09;;;;;;;;;;;;;;;29.69;21.38;101097.51;107660;1256;108763;-63
2023/03/23 10:37:08;;;;;;;;;;;;;;;29.93;20.49;101099.99;107565;1254;97985;-63
2023/03/23 10:39:58;;;;;;;;;;;;;;;30.04;20.93;101090.27;107658;1257;97882;-63
2023/03/23 10:42:44;;;;;;;;;;;;;;;30.57;21.07;101085.45;107709;1254;112250;-63
2023/03/23 10:45:32;;;;;;;;;;;;;;;31.08;20.25;101087.95;107600;1255;109691;-64
2023/03/23 10:48:24;;;;;;;;;;;;;;;31.09;19.13;101081.52;107696;1257;109694;-61
2023/03/23 10:50:57;;;;;;;;;;;;;;;31.34;18.97;101080.75;107600;1254;97893;-62
2023/03/23 10:53:47;;;;;;;;;;;;;;;31.07;18.58;101080.73;107721;1255;97912;-63
2023/03/23 10:56:38;;;;;;;;;;;;;;;31.28;19.19;101080.29;107545;1253;112118;-61
2023/03/23 10:59:28;;;;;;;;;;;;;;;31.11;18.03;101075.86;107614;1254;110146;-63
2023/03/23 11:02:18;;;;;;;;;;;;;;;30.82;18.33;101067.41;107552;1257;108915;-63
2023/03/23 11:05:13;;;;;;;;;;;;;;;31.19;19.03;101061.09;107605;1253;97838;-62
2023/03/23 11:07:41;;;;;;;;;;;;;;;31.24;17.51;101058.41;107607;1254;97807;-62
2023/03/23 11:10:38;;;;;;;;;;;;;;;30.98;18.02;101058.59;107685;1254;111862;-63
2023/03/23 11:13:29;;;;;;;;;;;;;;;31.43;17.79;101052.86;107716;1254;109367;-63
2023/03/23 11:16:22;;;;;;;;;;;;;;;31.64;17.66;101050.39;107662;1255;107765;-61
2023/03/23 11:19:13;;;;;;;;;;;;;;;32.08;17.36;101040.70;107635;1256;97815;-63
2023/03/23 11:22:05;;;;;;;;;;;;;;;32.17;16.86;101040.34;107618;1252;97847;-64
2023/03/23 11:24:34;;;;;;;;;;;;;;;32.12;16.45;101042.50;107600;1257;111798;-62
2023/03/23 11:27:20;;;;;;;;;;;;;;;31.42;16.98;101038.82;107599;1254;109533;-64
2023/03/23 11:30:11;;;;;;;;;;;;;;;30.99;16.72;101037.05;107548;1256;108386;-64
2023/03/23 11:33:00;;;;;;;;;;;;;;;30.49;16.99;101036.84;107561;1255;97838;-62
2023/03/23 11:35:46;;;;;;;;;;;;;;;30.14;17.44;101037.80;107694;1253;97785;-62
2023/03/23 11:38:32;;;;;;;;;;;;;;;30.11;18.08;101027.61;107636;1254;111861;-62
2023/03/23 11:41:00;;;;;;;;;;;;;;;30.26;17.71;101025.20;107589;1254;110649;-62
2023/03/23 11:43:46;;;;;;;;;;;;;;;30.21;17.56;101022.05;107571;1254;108551;-63
2023/03/23 11:46:34;;;;;;;;;;;;;;;30.23;17.48;101020.73;107690;1254;98350;-61
2023/03/23 11:49:23;;;;;;;;;;;;;;;29.80;17.47;101014.20;107711;1254;97717;-61
2023/03/23 11:52:17;;;;;;;;;;;;;;;29.59;18.08;101005.64;107663;1254;112883;-63
2023/03/23 11:55:11;;;;;;;;;;;;;;;29.24;17.77;101006.33;107740;1254;109697;-63
2023/03/23 11:57:39;;;;;;;;;;;;;;;29.10;17.71;101002.36;107667;1254;107753;-62
2023/03/23 12:00:25;;;;;;;;;;;;;;;29.27;17.60;100995.96;107668;1254;97908;-61
2023/03/23 12:03:33;;;;;;;;;;;;;;;29.41;17.25;100986.64;107699;1252;97890;-64
2023/03/23 12:06:26;;;;;;;;;;;;;;;29.13;17.93;100986.58;107646;1254;112354;-63
2023/03/23 12:09:18;;;;;;;;;;;;;;;28.97;18.17;100982.07;107678;1254;109541;-62
2023/03/23 12:12:09;;;;;;;;;;;;;;;28.82;17.86;100983.46;107588;1254;109108;-63
2023/03/23 12:14:43;;;;;;;;;;;;;;;28.59;18.10;100970.13;107708;1256;97826;-62
2023/03/23 12:17:34;;;;;;;;;;;;;;;28.41;18.55;100969.17;107742;1254;97882;-62
2023/03/23 12:20:21;;;;;;;;;;;;;;;28.20;18.77;100961.58;107702;1254;111974;-61
2023/03/23 12:23:13;;;;;;;;;;;;;;;28.30;18.64;100964.77;107611;1254;109095;-63
2023/03/23 12:26:06;;;;;;;;;;;;;;;28.41;18.79;100961.03;107612;1256;108375;-63
2023/03/23 12:29:08;;;;;;;;;;;;;;;28.50;18.06;100963.34;107602;1254;97874;-63
2023/03/23 12:31:38;;;;;;;;;;;;;;;28.38;18.62;100956.95;107606;1256;97905;-63
2023/03/23 12:34:31;;;;;;;;;;;;;;;28.43;18.26;100954.75;107658;1253;111768;-64
2023/03/23 12:37:26;;;;;;;;;;;;;;;28.70;18.59;100952.20;107505;1254;109191;-63
2023/03/23 12:40:25;;;;;;;;;;;;;;;29.19;18.09;100943.55;107714;1254;108129;-64
2023/03/23 12:43:23;;;;;;;;;;;;;;;29.63;17.64;100946.31;107730;1254;97793;-64
2023/03/23 12:46:31;;;;;;;;;;;;;;;29.71;17.02;100941.86;107507;1253;97932;-64
2023/03/23 12:49:13;;;;;;;;;;;;;;;29.63;17.45;100936.27;107414;1253;97838;-64
2023/03/23 12:52:04;;;;;;;;;;;;;;;30.11;16.96;100934.63;107509;1254;109656;-63
2023/03/23 12:54:55;;;;;;;;;;;;;;;30.33;16.81;100927.76;107701;1255;109349;-63
2023/03/23 12:58:03;;;;;;;;;;;;;;;30.56;16.73;100920.01;107620;1254;97833;-63
2023/03/23 13:00:53;;;;;;;;;;;;;;;30.50;16.93;100918.17;107721;1253;97698;-63
2023/03/23 13:03:44;;;;;;;;;;;;;;;30.41;17.09;100923.59;107691;1254;111848;-63
2023/03/23 13:06:16;;;;;;;;;;;;;;;30.07;17.35;100923.64;107665;1254;109663;-63
2023/03/23 13:09:02;;;;;;;;;;;;;;;29.78;17.51;100923.02;107708;1257;108283;-64
2023/03/23 13:11:49;;;;;;;;;;;;;;;29.49;17.27;100921.94;107677;1253;97830;-64
2023/03/23 13:14:38;;;;;;;;;;;;;;;29.05;17.69;100916.45;107719;1256;97827;-63
2023/03/23 13:17:57;;;;;;;;;;;;;;;28.68;18.05;100916.58;107659;1251;113325;-64
2023/03/23 13:21:07;;;;;;;;;;;;;;;28.43;18.48;100910.98;107432;1254;110641;-64
2023/03/23 13:23:37;;;;;;;;;;;;;;;28.57;18.26;100905.45;107609;1254;108674;-63
2023/03/23 13:26:23;;;;;;;;;;;;;;;28.92;18.32;100899.05;107680;1253;97807;-63
2023/03/23 13:29:13;;;;;;;;;;;;;;;29.10;17.54;100898.84;107671;1254;97893;-64
2023/03/23 13:32:25;;;;;;;;;;;;;;;28.95;17.16;100900.98;107712;1256;111735;-63
2023/03/23 13:35:13;;;;;;;;;;;;;;;28.83;17.85;100895.27;107521;1254;109711;-62
2023/03/23 13:37:58;;;;;;;;;;;;;;;29.19;17.75;100890.54;107656;1254;106329;-64
2023/03/23 13:40:27;;;;;;;;;;;;;;;29.79;17.13;100888.70;107701;1254;97899;-64
2023/03/23 13:43:24;;;;;;;;;;;;;;;30.45;16.92;100887.23;107719;1254;97755;-64
2023/03/23 13:46:25;;;;;;;;;;;;;;;31.17;17.06;100885.80;107607;1254;112898;-63
2023/03/23 13:49:14;;;;;;;;;;;;;;;31.87;16.39;100881.38;107626;1253;109313;-64
2023/03/23 13:52:00;;;;;;;;;;;;;;;32.47;15.93;100884.09;107669;1254;108112;-63
2023/03/23 13:54:47;;;;;;;;;;;;;;;32.46;14.95;100880.54;107712;1254;97847;-63
2023/03/23 13:57:23;;;;;;;;;;;;;;;31.94;15.18;100883.77;107716;1254;97708;-64
2023/03/23 14:00:12;;;;;;;;;;;;;;;31.48;16.17;100873.90;107631;1257;111800;-63
2023/03/23 14:02:59;;;;;;;;;;;;;;;31.43;16.11;100867.94;107692;1254;109967;-65
2023/03/23 14:05:50;;;;;;;;;;;;;;;31.22;16.08;100865.77;107671;1254;108783;-63
2023/03/23 14:08:53;;;;;;;;;;;;;;;30.83;16.42;100860.46;107583;1254;97874;-64
2023/03/23 14:11:48;;;;;;;;;;;;;;;30.62;16.83;100861.92;107631;1256;97928;-63
2023/03/23 14:14:41;;;;;;;;;;;;;;;30.34;16.74;100859.88;107575;1254;112365;-65
2023/03/23 14:17:31;;;;;;;;;;;;;;;29.88;17.59;100860.67;107527;1254;109765;-64